createdAt,value
2022-08-17T00:01:52.543Z,15.08
2022-08-17T00:04:24.608Z,15.10
2022-08-17T00:06:55.668Z,15.13
2022-08-17T00:09:26.741Z,15.15
2022-08-17T00:12:40.943Z,15.14
2022-08-17T00:14:50.474Z,15.10
2022-08-17T00:17:21.558Z,15.10
2022-08-17T00:19:52.673Z,15.11
2022-08-17T00:22:32.624Z,15.10
2022-08-17T00:25:12.299Z,15.09
2022-08-17T00:27:43.416Z,15.06
2022-08-17T00:30:17.879Z,15.05
2022-08-17T00:33:12.527Z,15.01
2022-08-17T00:35:42.973Z,14.98
2022-08-17T00:38:14.605Z,14.94
2022-08-17T00:40:48.688Z,14.93
2022-08-17T00:43:22.628Z,14.92
2022-08-17T00:45:54.241Z,14.90
2022-08-17T00:48:29.896Z,14.86
2022-08-17T00:51:08.409Z,14.82
2022-08-17T00:53:43.993Z,14.79
2022-08-17T00:56:21.118Z,14.77
2022-08-17T00:58:50.650Z,14.77
2022-08-17T01:01:22.376Z,14.74
2022-08-17T01:03:59.841Z,14.73
2022-08-17T01:06:31.266Z,14.72
2022-08-17T01:09:05.493Z,14.69
2022-08-17T01:11:37.202Z,14.66
2022-08-17T01:14:09.015Z,14.63
2022-08-17T01:16:40.987Z,14.62
2022-08-17T01:19:18.480Z,14.61
2022-08-17T01:21:56.163Z,14.59
2022-08-17T01:24:27.101Z,14.57
2022-08-17T01:26:58.192Z,14.55
2022-08-17T01:29:32.078Z,14.52
2022-08-17T01:32:07.098Z,14.49
2022-08-17T01:34:42.694Z,14.47
2022-08-17T01:37:16.171Z,14.44
2022-08-17T01:39:50.606Z,14.42
2022-08-17T01:42:25.409Z,14.39
2022-08-17T01:45:00.007Z,14.37
2022-08-17T01:47:31.158Z,14.35
2022-08-17T01:50:08.910Z,14.33
2022-08-17T01:52:40.728Z,14.32
2022-08-17T01:55:17.513Z,14.29
2022-08-17T01:57:48.686Z,14.26
2022-08-17T02:00:19.716Z,14.25
2022-08-17T02:02:51.213Z,14.24
2022-08-17T02:05:22.416Z,14.22
2022-08-17T02:08:00.495Z,14.20
2022-08-17T02:10:34.203Z,14.17
2022-08-17T02:13:06.540Z,14.13
2022-08-17T02:15:37.437Z,14.10
2022-08-17T02:18:10.264Z,14.08
2022-08-17T02:20:42.952Z,14.08
2022-08-17T02:23:16.299Z,14.07
2022-08-17T02:25:49.065Z,14.07
2022-08-17T02:28:20.971Z,14.05
2022-08-17T02:31:00.858Z,14.02
2022-08-17T02:33:42.009Z,14.00
2022-08-17T02:36:15.148Z,13.97
2022-08-17T02:38:46.338Z,13.95
2022-08-17T02:41:17.024Z,13.90
2022-08-17T02:43:46.626Z,13.82
2022-08-17T02:46:17.692Z,13.74
2022-08-17T02:48:48.623Z,13.67
2022-08-17T02:51:18.249Z,13.58
2022-08-17T02:53:49.159Z,13.49
2022-08-17T02:56:18.352Z,13.48
2022-08-17T02:58:47.769Z,13.46
2022-08-17T03:01:19.140Z,13.46
2022-08-17T03:03:50.571Z,13.49
2022-08-17T03:06:21.599Z,13.51
2022-08-17T03:08:54.689Z,13.53
2022-08-17T03:11:25.598Z,13.56
2022-08-17T03:13:56.884Z,13.58
2022-08-17T03:16:28.552Z,13.58
2022-08-17T03:18:59.399Z,13.59
2022-08-17T03:21:30.647Z,13.58
2022-08-17T03:24:01.597Z,13.59
2022-08-17T03:26:39.982Z,13.60
2022-08-17T03:29:10.939Z,13.60
2022-08-17T03:31:41.821Z,13.61
2022-08-17T03:34:12.692Z,13.61
2022-08-17T03:36:43.952Z,13.60
2022-08-17T03:39:15.011Z,13.60
2022-08-17T03:41:45.871Z,13.59
2022-08-17T03:44:16.986Z,13.57
2022-08-17T03:47:05.709Z,13.55
2022-08-17T03:49:56.445Z,13.55
2022-08-17T03:52:44.657Z,13.54
2022-08-17T03:55:40.646Z,13.52
2022-08-17T03:58:11.747Z,13.51
2022-08-17T04:00:45.735Z,13.51
2022-08-17T04:03:17.385Z,13.51
2022-08-17T04:05:48.260Z,13.50
2022-08-17T04:08:38.936Z,13.49
2022-08-17T04:11:29.638Z,13.48
2022-08-17T04:14:19.816Z,13.48
2022-08-17T04:17:00.954Z,13.47
2022-08-17T04:19:32.282Z,13.48
2022-08-17T04:22:05.646Z,13.51
2022-08-17T04:24:37.209Z,13.53
2022-08-17T04:27:08.221Z,13.53
2022-08-17T04:29:50.065Z,13.54
2022-08-17T04:33:04.098Z,13.55
2022-08-17T04:35:20.832Z,13.56
2022-08-17T04:37:52.149Z,13.58
2022-08-17T04:40:54.219Z,13.62
2022-08-17T04:43:27.307Z,13.67
2022-08-17T04:46:02.273Z,13.71
2022-08-17T04:48:37.402Z,13.76
2022-08-17T04:52:07.839Z,13.84
2022-08-17T04:54:58.700Z,13.93
2022-08-17T04:57:29.775Z,14.01
2022-08-17T05:00:13.208Z,14.09
2022-08-17T05:02:50.603Z,14.16
2022-08-17T05:05:23.962Z,14.26
2022-08-17T05:07:57.006Z,14.39
2022-08-17T05:10:32.413Z,14.49
2022-08-17T05:13:05.928Z,14.60
2022-08-17T05:15:38.748Z,14.72
2022-08-17T05:18:16.855Z,14.83
2022-08-17T05:20:48.113Z,14.94
2022-08-17T05:23:25.845Z,15.04
2022-08-17T05:25:58.459Z,15.14
2022-08-17T05:28:29.894Z,15.25
2022-08-17T05:31:04.593Z,15.35
2022-08-17T05:33:41.505Z,15.49
2022-08-17T05:36:43.021Z,15.62
2022-08-17T05:39:07.735Z,15.80
2022-08-17T05:41:39.210Z,15.95
2022-08-17T05:44:10.130Z,16.09
2022-08-17T05:46:45.391Z,16.25
2022-08-17T05:49:18.789Z,16.40
2022-08-17T05:52:04.573Z,16.55
2022-08-17T05:54:45.320Z,16.71
2022-08-17T05:57:54.116Z,16.85
2022-08-17T06:00:30.708Z,16.99
2022-08-17T06:03:27.031Z,17.12
2022-08-17T06:06:17.433Z,17.28
2022-08-17T06:08:54.774Z,17.45
2022-08-17T06:11:32.626Z,17.61
2022-08-17T06:14:28.468Z,17.77
2022-08-17T06:17:04.431Z,17.94
2022-08-17T06:19:41.159Z,18.09
2022-08-17T06:22:16.318Z,18.26
2022-08-17T06:24:56.898Z,18.43
2022-08-17T06:27:33.795Z,18.60
2022-08-17T06:30:10.220Z,18.76
2022-08-17T06:32:43.532Z,18.91
2022-08-17T06:35:18.533Z,19.06
2022-08-17T06:38:06.968Z,19.22
2022-08-17T06:40:55.490Z,19.39
2022-08-17T06:43:39.851Z,19.54
2022-08-17T06:46:17.122Z,19.69
2022-08-17T06:48:53.973Z,19.83
2022-08-17T06:51:29.532Z,19.95
2022-08-17T06:54:08.193Z,20.10
2022-08-17T06:56:53.206Z,20.24
2022-08-17T06:59:55.007Z,20.40
2022-08-17T07:02:51.555Z,20.59
2022-08-17T07:05:27.739Z,20.78
2022-08-17T07:08:03.991Z,20.95
2022-08-17T07:10:40.327Z,21.12
2022-08-17T07:13:25.767Z,21.27
2022-08-17T07:16:05.757Z,21.44
2022-08-17T07:18:37.504Z,21.61
2022-08-17T07:21:26.473Z,21.78
2022-08-17T07:24:29.572Z,21.97
2022-08-17T07:27:13.616Z,22.16
2022-08-17T07:29:49.519Z,22.32
2022-08-17T07:32:26.601Z,22.46
2022-08-17T07:35:16.498Z,22.63
2022-08-17T07:37:54.175Z,22.80
2022-08-17T07:40:36.762Z,22.96
2022-08-17T07:43:22.170Z,23.10
2022-08-17T07:46:30.694Z,23.25
2022-08-17T07:49:21.278Z,23.41
2022-08-17T07:52:24.815Z,23.55
2022-08-17T07:54:56.611Z,23.69
2022-08-17T07:57:35.332Z,23.79
2022-08-17T08:00:32.336Z,23.91
2022-08-17T08:03:13.337Z,24.02
2022-08-17T08:05:55.411Z,24.13
2022-08-17T08:08:34.610Z,24.23
2022-08-17T08:11:10.285Z,24.34
2022-08-17T08:13:43.933Z,24.42
2022-08-17T08:16:25.423Z,24.49
2022-08-17T08:18:58.478Z,24.57
2022-08-17T08:21:43.217Z,24.66
2022-08-17T08:24:40.241Z,24.73
2022-08-17T08:27:21.486Z,24.81
2022-08-17T08:29:58.794Z,24.88
2022-08-17T08:32:50.297Z,24.97
2022-08-17T08:35:32.521Z,25.07
2022-08-17T08:38:15.898Z,25.16
2022-08-17T08:41:03.588Z,25.27
2022-08-17T08:43:45.185Z,25.35
2022-08-17T08:46:30.800Z,25.41
2022-08-17T08:49:58.990Z,25.48
2022-08-17T08:52:34.324Z,25.62
2022-08-17T08:55:13.252Z,25.67
2022-08-17T08:57:50.281Z,25.71
2022-08-17T09:00:24.825Z,25.76
2022-08-17T09:03:36.751Z,25.81
2022-08-17T09:06:33.592Z,25.90
2022-08-17T09:09:27.640Z,25.96
2022-08-17T09:12:13.806Z,26.03
2022-08-17T09:14:52.836Z,26.09
2022-08-17T09:17:31.308Z,26.14
2022-08-17T09:20:07.285Z,26.21
2022-08-17T09:22:42.725Z,26.28
2022-08-17T09:25:17.504Z,26.33
2022-08-17T09:27:57.902Z,26.37
2022-08-17T09:30:44.153Z,26.45
2022-08-17T09:33:22.970Z,26.56
2022-08-17T09:35:58.668Z,26.65
2022-08-17T09:38:41.694Z,26.73
2022-08-17T09:41:19.834Z,26.80
2022-08-17T09:44:08.566Z,26.89
2022-08-17T09:47:03.506Z,26.93
2022-08-17T09:49:39.910Z,26.99
2022-08-17T09:52:18.366Z,27.06
2022-08-17T09:54:51.968Z,27.14
2022-08-17T09:57:35.455Z,27.21
2022-08-17T10:00:18.808Z,27.27
2022-08-17T10:03:09.823Z,27.36
2022-08-17T10:05:46.806Z,27.45
2022-08-17T10:08:27.748Z,27.54
2022-08-17T10:11:08.391Z,27.63
2022-08-17T10:13:52.956Z,27.73
2022-08-17T10:16:31.427Z,27.87
2022-08-17T10:19:11.498Z,27.97
2022-08-17T10:22:14.744Z,28.04
2022-08-17T10:25:24.849Z,28.06
2022-08-17T10:28:06.461Z,28.13
2022-08-17T10:30:47.957Z,28.21
2022-08-17T10:33:23.551Z,28.27
2022-08-17T10:36:03.651Z,28.33
2022-08-17T10:38:46.154Z,28.41
2022-08-17T10:41:36.841Z,28.50
2022-08-17T10:44:39.557Z,28.60
2022-08-17T10:47:14.489Z,28.62
2022-08-17T10:49:54.443Z,28.70
2022-08-17T10:52:50.279Z,28.78
2022-08-17T10:55:25.934Z,28.84
2022-08-17T10:58:27.147Z,28.92
2022-08-17T11:01:09.811Z,29.00
2022-08-17T11:03:54.175Z,29.04
2022-08-17T11:06:42.638Z,29.09
2022-08-17T11:09:21.009Z,29.12
2022-08-17T11:12:11.373Z,29.09
2022-08-17T11:15:14.096Z,29.13
2022-08-17T11:18:07.301Z,29.23
2022-08-17T11:21:17.519Z,29.26
2022-08-17T11:24:18.759Z,29.34
2022-08-17T11:27:12.187Z,29.37
2022-08-17T11:29:58.163Z,29.40
2022-08-17T11:32:47.248Z,29.37
2022-08-17T11:35:40.035Z,29.31
2022-08-17T11:38:27.818Z,29.30
2022-08-17T11:41:07.761Z,29.32
2022-08-17T11:44:17.494Z,29.32
2022-08-17T11:47:23.252Z,29.36
2022-08-17T11:50:28.315Z,29.44
2022-08-17T11:52:59.392Z,29.47
2022-08-17T11:56:00.930Z,29.51
2022-08-17T11:58:43.425Z,29.56
2022-08-17T12:01:35.342Z,29.63
2022-08-17T12:04:28.077Z,29.68
2022-08-17T12:07:06.525Z,29.74
2022-08-17T12:09:42.921Z,29.80
2022-08-17T12:12:17.583Z,29.84
2022-08-17T12:15:12.923Z,29.85
2022-08-17T12:17:51.641Z,29.87
2022-08-17T12:20:28.041Z,29.85
2022-08-17T12:23:11.066Z,29.80
2022-08-17T12:25:49.447Z,29.82
2022-08-17T12:28:28.702Z,29.80
2022-08-17T12:31:03.016Z,29.79
2022-08-17T12:33:37.168Z,29.79
2022-08-17T12:36:12.611Z,29.79
2022-08-17T12:38:51.640Z,29.81
2022-08-17T12:41:36.052Z,29.86
2022-08-17T12:44:13.248Z,29.86
2022-08-17T12:47:00.806Z,29.86
2022-08-17T12:49:36.600Z,29.90
2022-08-17T12:52:16.997Z,29.92
2022-08-17T12:55:00.635Z,29.95
2022-08-17T12:57:37.580Z,29.98
2022-08-17T13:00:17.862Z,30.02
2022-08-17T13:02:52.087Z,30.04
2022-08-17T13:05:30.281Z,30.04
2022-08-17T13:08:04.495Z,30.05
2022-08-17T13:10:38.103Z,30.06
2022-08-17T13:13:25.013Z,30.08
2022-08-17T13:15:58.310Z,30.15
2022-08-17T13:18:42.778Z,30.18
2022-08-17T13:21:30.723Z,30.20
2022-08-17T13:24:01.466Z,30.20
2022-08-17T13:26:37.996Z,30.14
2022-08-17T13:29:24.021Z,30.15
2022-08-17T13:32:04.086Z,30.14
2022-08-17T13:34:59.599Z,30.14
2022-08-17T13:37:35.301Z,30.18
2022-08-17T13:40:36.771Z,30.21
2022-08-17T13:43:08.000Z,30.25
2022-08-17T13:46:08.105Z,30.29
2022-08-17T13:48:39.388Z,30.31
2022-08-17T13:51:26.460Z,30.31
2022-08-17T13:54:02.161Z,30.34
2022-08-17T13:56:51.918Z,30.33
2022-08-17T13:59:52.618Z,30.30
2022-08-17T14:02:22.455Z,30.31
2022-08-17T14:04:57.238Z,30.36
2022-08-17T14:07:36.591Z,30.44
2022-08-17T14:10:13.390Z,30.52
2022-08-17T14:12:46.096Z,30.59
2022-08-17T14:15:20.581Z,30.83
2022-08-17T14:17:52.827Z,30.97
2022-08-17T14:20:25.365Z,30.99
2022-08-17T14:22:57.312Z,31.06
2022-08-17T14:25:30.648Z,31.09
2022-08-17T14:28:01.765Z,31.13
2022-08-17T14:30:34.500Z,31.24
2022-08-17T14:33:06.133Z,31.66
2022-08-17T14:35:37.519Z,32.02
2022-08-17T14:38:09.824Z,32.33
2022-08-17T14:40:41.072Z,32.56
2022-08-17T14:43:12.314Z,32.76
2022-08-17T14:45:43.307Z,32.97
2022-08-17T14:48:14.243Z,33.20
2022-08-17T14:50:46.380Z,33.41
2022-08-17T14:53:17.832Z,33.54
2022-08-17T14:55:50.582Z,33.68
2022-08-17T14:58:22.387Z,33.78
2022-08-17T15:00:53.474Z,33.83
2022-08-17T15:03:24.712Z,33.87
2022-08-17T15:05:56.146Z,33.87
2022-08-17T15:08:28.365Z,33.77
2022-08-17T15:11:07.787Z,33.79
2022-08-17T15:13:53.307Z,33.90
2022-08-17T15:16:24.539Z,33.92
2022-08-17T15:18:55.675Z,33.89
2022-08-17T15:21:28.878Z,33.79
2022-08-17T15:24:00.243Z,33.74
2022-08-17T15:26:31.694Z,33.61
2022-08-17T15:29:03.385Z,33.37
2022-08-17T15:31:35.804Z,33.15
2022-08-17T15:34:07.936Z,33.00
2022-08-17T15:36:41.337Z,32.80
2022-08-17T15:39:22.160Z,32.68
2022-08-17T15:41:58.673Z,32.64
2022-08-17T15:44:32.464Z,32.76
2022-08-17T15:47:06.346Z,32.86
2022-08-17T15:49:39.648Z,32.95
2022-08-17T15:52:19.365Z,33.06
2022-08-17T15:54:56.303Z,33.05
2022-08-17T15:57:28.222Z,33.06
2022-08-17T16:00:00.029Z,33.05
2022-08-17T16:03:15.145Z,33.02
2022-08-17T16:05:28.702Z,32.99
2022-08-17T16:08:02.322Z,33.05
2022-08-17T16:10:34.959Z,33.05
2022-08-17T16:13:17.793Z,33.01
2022-08-17T16:15:56.945Z,32.85
2022-08-17T16:18:31.792Z,32.71
2022-08-17T16:21:25.408Z,32.57
2022-08-17T16:23:58.736Z,32.59
2022-08-17T16:26:30.911Z,32.59
2022-08-17T16:29:05.440Z,32.57
2022-08-17T16:31:37.746Z,32.53
2022-08-17T16:34:17.971Z,32.50
2022-08-17T16:36:55.456Z,32.49
2022-08-17T16:39:29.688Z,32.47
2022-08-17T16:42:02.641Z,32.45
2022-08-17T16:44:33.913Z,32.41
2022-08-17T16:47:07.460Z,32.32
2022-08-17T16:49:39.404Z,32.19
2022-08-17T16:52:12.006Z,32.02
2022-08-17T16:54:45.606Z,31.84
2022-08-17T16:57:17.530Z,31.68
2022-08-17T16:59:50.412Z,31.52
2022-08-17T17:02:31.208Z,31.35
2022-08-17T17:05:08.583Z,31.12
2022-08-17T17:07:55.220Z,30.84
2022-08-17T17:10:33.342Z,30.65
2022-08-17T17:13:06.729Z,30.48
2022-08-17T17:15:47.745Z,30.37
2022-08-17T17:18:20.949Z,30.32
2022-08-17T17:20:56.566Z,30.31
2022-08-17T17:23:51.316Z,30.35
2022-08-17T17:26:33.392Z,30.36
2022-08-17T17:29:08.338Z,30.25
2022-08-17T17:31:56.046Z,30.00
2022-08-17T17:34:30.659Z,29.82
2022-08-17T17:37:09.008Z,29.66
2022-08-17T17:39:45.326Z,29.46
2022-08-17T17:42:20.468Z,29.26
2022-08-17T17:44:56.715Z,28.98
2022-08-17T17:47:27.760Z,28.56
2022-08-17T17:50:01.050Z,28.08
2022-08-17T17:52:38.814Z,27.67
2022-08-17T17:55:19.399Z,27.43
2022-08-17T17:58:02.443Z,27.22
2022-08-17T18:00:40.323Z,26.91
2022-08-17T18:03:27.129Z,26.67
2022-08-17T18:06:23.860Z,26.44
2022-08-17T18:09:10.161Z,26.20
2022-08-17T18:11:59.975Z,25.97
2022-08-17T18:14:47.734Z,25.74
2022-08-17T18:17:20.522Z,25.48
2022-08-17T18:19:51.465Z,25.24
2022-08-17T18:22:24.418Z,25.00
2022-08-17T18:24:57.411Z,24.81
2022-08-17T18:27:35.009Z,24.63
2022-08-17T18:30:28.885Z,24.42
2022-08-17T18:33:26.964Z,24.20
2022-08-17T18:36:14.021Z,23.96
2022-08-17T18:38:54.305Z,23.76
2022-08-17T18:41:31.851Z,23.57
2022-08-17T18:44:17.493Z,23.41
2022-08-17T18:46:49.091Z,23.26
2022-08-17T18:49:30.228Z,23.10
2022-08-17T18:52:15.563Z,22.91
2022-08-17T18:55:03.920Z,22.74
2022-08-17T18:57:38.260Z,22.56
2022-08-17T19:00:26.701Z,22.43
2022-08-17T19:03:09.766Z,22.29
2022-08-17T19:05:46.632Z,22.16
2022-08-17T19:08:28.411Z,22.05
2022-08-17T19:11:04.733Z,21.94
2022-08-17T19:13:40.516Z,21.86
2022-08-17T19:16:18.655Z,21.75
2022-08-17T19:18:57.956Z,21.63
2022-08-17T19:21:36.097Z,21.56
2022-08-17T19:24:12.635Z,21.48
2022-08-17T19:26:54.600Z,21.39
2022-08-17T19:29:36.962Z,21.33
2022-08-17T19:32:10.694Z,21.25
2022-08-17T19:34:44.766Z,21.18
2022-08-17T19:37:28.517Z,21.12
2022-08-17T19:40:24.528Z,20.99
2022-08-17T19:43:10.792Z,20.87
2022-08-17T19:45:56.144Z,20.80
2022-08-17T19:48:40.879Z,20.76
2022-08-17T19:51:17.890Z,20.70
2022-08-17T19:54:05.829Z,20.61
2022-08-17T19:56:45.770Z,20.50
2022-08-17T19:59:26.012Z,20.43
2022-08-17T20:02:01.338Z,20.35
2022-08-17T20:04:42.224Z,20.25
2022-08-17T20:07:18.951Z,20.20
2022-08-17T20:09:57.109Z,20.14
2022-08-17T20:12:34.567Z,20.10
2022-08-17T20:15:10.718Z,20.05
2022-08-17T20:17:47.418Z,20.02
2022-08-17T20:20:21.869Z,19.96
2022-08-17T20:23:00.275Z,19.89
2022-08-17T20:25:39.176Z,19.83
2022-08-17T20:28:23.334Z,19.76
2022-08-17T20:30:54.912Z,19.70
2022-08-17T20:33:29.915Z,19.64
2022-08-17T20:36:15.299Z,19.60
2022-08-17T20:38:50.635Z,19.56
2022-08-17T20:41:24.339Z,19.53
2022-08-17T20:44:06.817Z,19.45
2022-08-17T20:47:04.721Z,19.43
2022-08-17T20:49:50.271Z,19.35
2022-08-17T20:52:52.169Z,19.30
2022-08-17T20:55:53.529Z,19.26
2022-08-17T20:58:48.231Z,19.20
2022-08-17T21:01:35.366Z,19.09
2022-08-17T21:04:09.547Z,19.07
2022-08-17T21:07:17.652Z,19.02
2022-08-17T21:09:50.096Z,18.95
2022-08-17T21:12:43.148Z,18.91
2022-08-17T21:15:31.235Z,18.84
2022-08-17T21:18:12.527Z,18.77
2022-08-17T21:20:58.250Z,18.73
2022-08-17T21:23:48.216Z,18.71
2022-08-17T21:26:31.584Z,18.69
2022-08-17T21:29:29.490Z,18.65
2022-08-17T21:32:24.233Z,18.63
2022-08-17T21:35:47.327Z,18.59
2022-08-17T21:38:20.887Z,18.56
2022-08-17T21:40:54.224Z,18.55
2022-08-17T21:43:32.060Z,18.52
2022-08-17T21:46:08.341Z,18.49
2022-08-17T21:48:48.256Z,18.44
2022-08-17T21:51:23.942Z,18.39
2022-08-17T21:53:58.669Z,18.37
2022-08-17T21:56:32.775Z,18.34
2022-08-17T21:59:07.144Z,18.33
2022-08-17T22:01:41.395Z,18.30
2022-08-17T22:04:25.538Z,18.25
2022-08-17T22:06:57.897Z,18.18
2022-08-17T22:09:32.180Z,18.13
2022-08-17T22:12:07.533Z,18.09
2022-08-17T22:14:53.243Z,18.08
2022-08-17T22:17:27.688Z,18.07
2022-08-17T22:20:01.823Z,18.06
2022-08-17T22:22:57.884Z,18.03
2022-08-17T22:25:31.127Z,18.01
2022-08-17T22:28:03.965Z,17.97
2022-08-17T22:30:40.337Z,17.96
2022-08-17T22:33:37.906Z,17.93
2022-08-17T22:36:26.531Z,17.91
2022-08-17T22:39:02.739Z,17.88
2022-08-17T22:41:54.705Z,17.85
2022-08-17T22:44:30.336Z,17.82
2022-08-17T22:47:06.805Z,17.79
2022-08-17T22:49:53.140Z,17.76
2022-08-17T22:52:32.719Z,17.74
2022-08-17T22:55:26.383Z,17.72
2022-08-17T22:58:14.801Z,17.71
2022-08-17T23:00:48.753Z,17.68
2022-08-17T23:03:22.364Z,17.69
2022-08-17T23:06:06.825Z,17.72
2022-08-17T23:08:47.224Z,17.74
2022-08-17T23:11:18.279Z,17.74
2022-08-17T23:13:49.394Z,17.74
2022-08-17T23:16:21.349Z,17.73
2022-08-17T23:18:52.728Z,17.71
2022-08-17T23:21:29.590Z,17.70
2022-08-17T23:24:01.946Z,17.68
2022-08-17T23:26:39.440Z,17.65
2022-08-17T23:29:10.860Z,17.61
2022-08-17T23:31:42.858Z,17.57
2022-08-17T23:34:18.513Z,17.53
2022-08-17T23:36:52.370Z,17.46
2022-08-17T23:39:27.695Z,17.44
2022-08-17T23:42:00.264Z,17.42
2022-08-17T23:44:32.764Z,17.37
2022-08-17T23:47:04.620Z,17.35
2022-08-17T23:49:36.184Z,17.32
2022-08-17T23:52:12.636Z,17.28
2022-08-17T23:54:48.103Z,17.24
2022-08-17T23:57:33.712Z,17.22
